Time;durP1;ratioP1;P1;durP2;ratioP2;P2;SDS_P1;SDS_P2;PMS_P1;PMS_P2;Temp;Humidity;BMP_temperature;BMP_pressure;BME280_temperature;BME280_humidity;BME280_pressure;Samples;Min_cycle;Max_cycle;Signal;HPM_P1;HPM_P2
2023/11/22 00:02:19;;;;;;;9.55;7.18;;;5.00;99.90;;;;;;5013416;28;20581;-78
2023/11/22 00:04:46;;;;;;;6.38;5.75;;;5.00;99.90;;;;;;5012719;28;20240;-78
2023/11/22 00:07:13;;;;;;;10.75;6.30;;;5.00;99.90;;;;;;5013283;28;20563;-78
2023/11/22 00:09:42;;;;;;;9.98;6.40;;;5.00;99.90;;;;;;5012885;28;20753;-86
2023/11/22 00:12:09;;;;;;;7.32;6.55;;;5.00;99.90;;;;;;5013138;28;20699;-79
2023/11/22 00:14:36;;;;;;;7.55;6.75;;;5.00;99.90;;;;;;5012602;28;20226;-80
2023/11/22 00:17:05;;;;;;;7.18;6.47;;;4.90;99.90;;;;;;5016017;28;20644;-86
2023/11/22 00:19:32;;;;;;;7.25;6.55;;;4.90;99.90;;;;;;5016370;28;20308;-78
2023/11/22 00:21:59;;;;;;;8.52;6.47;;;4.90;99.90;;;;;;5016204;28;20304;-86
2023/11/22 00:24:26;;;;;;;9.90;6.20;;;4.90;99.90;;;;;;5016558;28;20230;-85
2023/11/22 00:26:53;;;;;;;7.72;6.22;;;4.90;99.90;;;;;;5016262;28;20226;-79
2023/11/22 00:29:20;;;;;;;9.35;6.50;;;4.90;99.90;;;;;;5016745;28;20276;-79
2023/11/22 00:31:47;;;;;;;7.38;6.63;;;4.90;99.90;;;;;;5007652;28;20317;-79
2023/11/22 00:34:15;;;;;;;6.53;5.38;;;4.80;99.90;;;;;;4996696;28;20305;-79
2023/11/22 00:36:42;;;;;;;7.32;6.47;;;4.90;99.90;;;;;;4996388;28;20227;-78
2023/11/22 00:39:12;;;;;;;9.75;5.93;;;4.90;99.90;;;;;;4996997;28;20413;-81
2023/11/22 00:41:39;;;;;;;5.88;5.35;;;4.90;99.90;;;;;;4996543;28;20270;-78
2023/11/22 00:44:07;;;;;;;6.85;5.75;;;4.80;99.90;;;;;;4995659;28;20668;-79
2023/11/22 00:46:37;;;;;;;7.53;5.75;;;4.80;99.90;;;;;;4995191;28;20239;-83
2023/11/22 00:49:04;;;;;;;7.30;6.15;;;4.80;99.90;;;;;;4994852;28;20218;-84
2023/11/22 00:51:33;;;;;;;7.00;5.47;;;4.80;99.90;;;;;;4995873;28;20233;-78
2023/11/22 00:54:00;;;;;;;8.38;5.85;;;4.80;99.90;;;;;;4995020;28;20256;-78
2023/11/22 00:56:27;;;;;;;6.82;5.57;;;4.80;99.90;;;;;;4995012;28;20242;-85
2023/11/22 00:58:57;;;;;;;6.65;5.95;;;4.80;99.90;;;;;;4996016;28;20258;-85
2023/11/22 01:01:24;;;;;;;6.72;6.03;;;4.80;99.90;;;;;;4995642;28;20314;-78
2023/11/22 01:03:50;;;;;;;10.30;6.05;;;4.80;99.90;;;;;;4995663;28;20258;-84
2023/11/22 01:06:17;;;;;;;7.10;6.20;;;4.70;99.90;;;;;;4996200;28;20253;-78
2023/11/22 01:08:47;;;;;;;8.05;6.35;;;4.70;99.90;;;;;;4995888;28;20222;-84
2023/11/22 01:11:16;;;;;;;7.13;6.28;;;4.80;99.90;;;;;;4996564;28;20669;-85
2023/11/22 01:13:43;;;;;;;6.82;5.95;;;4.70;99.90;;;;;;4995793;28;20230;-84
2023/11/22 01:16:11;;;;;;;9.35;6.90;;;4.70;99.90;;;;;;4996112;28;20311;-85
2023/11/22 01:18:38;;;;;;;6.93;5.72;;;4.70;99.90;;;;;;4995796;28;20405;-85
2023/11/22 01:21:05;;;;;;;9.52;6.72;;;4.60;99.90;;;;;;4995602;28;20704;-78
2023/11/22 01:23:32;;;;;;;8.75;6.35;;;4.60;99.90;;;;;;4996139;28;20614;-85
2023/11/22 01:26:02;;;;;;;6.60;5.82;;;4.60;99.90;;;;;;4995608;28;20226;-84
2023/11/22 01:28:34;;;;;;;7.80;6.20;;;4.60;99.90;;;;;;4995424;28;20293;-85
2023/11/22 01:31:01;;;;;;;8.80;6.47;;;4.60;99.90;;;;;;4995697;28;20258;-85
2023/11/22 01:33:28;;;;;;;8.57;6.65;;;4.60;99.90;;;;;;4995923;28;20226;-78
2023/11/22 01:35:55;;;;;;;8.02;6.53;;;4.60;99.90;;;;;;4995144;28;20601;-78
2023/11/22 01:38:23;;;;;;;9.63;6.95;;;4.60;99.90;;;;;;4995741;28;20541;-78
2023/11/22 01:40:52;;;;;;;7.93;6.32;;;4.60;99.90;;;;;;4995238;28;20230;-79
2023/11/22 01:43:23;;;;;;;7.50;6.55;;;4.60;99.90;;;;;;4995690;28;20632;-85
2023/11/22 01:45:50;;;;;;;7.00;6.30;;;4.50;99.90;;;;;;4995134;28;20227;-84
2023/11/22 01:48:18;;;;;;;8.30;6.55;;;4.50;99.90;;;;;;4995579;28;20231;-84
2023/11/22 01:50:45;;;;;;;7.63;6.35;;;4.40;99.90;;;;;;4994979;28;20229;-79
2023/11/22 01:53:13;;;;;;;8.82;6.35;;;4.30;99.90;;;;;;4995325;28;20329;-85
2023/11/22 01:55:41;;;;;;;7.63;5.95;;;4.30;99.90;;;;;;4995420;28;20230;-78
2023/11/22 01:58:08;;;;;;;7.32;6.40;;;4.30;99.90;;;;;;4994444;28;20222;-78
2023/11/22 02:00:45;;;;;;;9.20;6.38;;;4.20;99.90;;;;;;4995656;28;20215;-84
2023/11/22 02:03:12;;;;;;;7.90;5.88;;;4.20;99.90;;;;;;4994228;28;20230;-84
2023/11/22 02:05:43;;;;;;;8.10;6.55;;;4.20;99.90;;;;;;4995615;28;20237;-85
2023/11/22 02:08:11;;;;;;;11.25;7.95;;;4.20;99.90;;;;;;4994894;28;20222;-85
2023/11/22 02:10:38;;;;;;;9.18;7.47;;;4.10;99.90;;;;;;4995257;28;20646;-84
2023/11/22 02:13:07;;;;;;;7.05;6.35;;;4.10;99.90;;;;;;4994522;28;20223;-85
2023/11/22 02:15:34;;;;;;;9.13;7.57;;;4.10;99.90;;;;;;4995413;28;20571;-84
2023/11/22 02:18:05;;;;;;;10.10;7.53;;;4.10;99.90;;;;;;4994496;28;20227;-78
2023/11/22 02:20:32;;;;;;;8.50;5.75;;;4.10;99.90;;;;;;4995001;28;20226;-78
2023/11/22 02:23:08;;;;;;;9.30;7.07;;;4.10;99.90;;;;;;4994061;28;20230;-78
2023/11/22 02:25:35;;;;;;;7.65;6.35;;;4.10;99.90;;;;;;4994828;28;20242;-78
2023/11/22 02:28:03;;;;;;;8.70;6.53;;;4.10;99.90;;;;;;4993945;28;20242;-78
2023/11/22 02:30:31;;;;;;;7.95;7.07;;;4.10;99.90;;;;;;4994669;28;20249;-78
2023/11/22 02:32:59;;;;;;;7.25;5.30;;;4.00;99.90;;;;;;4996234;28;20235;-78
2023/11/22 02:35:26;;;;;;;6.35;5.50;;;4.00;99.90;;;;;;4994529;28;20227;-78
2023/11/22 02:37:53;;;;;;;6.25;5.65;;;4.00;99.90;;;;;;4994130;28;20222;-78
2023/11/22 02:40:24;;;;;;;7.47;6.25;;;3.90;99.90;;;;;;4993534;28;20227;-78
2023/11/22 02:42:52;;;;;;;8.07;6.10;;;4.00;99.90;;;;;;4994197;28;20250;-78
2023/11/22 02:45:22;;;;;;;8.32;7.50;;;4.00;99.90;;;;;;4994410;28;20246;-78
2023/11/22 02:47:50;;;;;;;8.90;6.57;;;4.00;99.90;;;;;;4994649;28;20304;-78
2023/11/22 02:50:18;;;;;;;8.38;6.72;;;4.00;99.90;;;;;;4993952;28;20592;-84
2023/11/22 02:52:45;;;;;;;6.97;6.38;;;4.00;99.90;;;;;;4994538;28;20322;-84
2023/11/22 02:55:12;;;;;;;8.07;5.93;;;4.00;99.90;;;;;;4986141;28;20219;-84
2023/11/22 02:57:40;;;;;;;7.90;5.65;;;4.00;99.90;;;;;;4975051;28;20234;-84
2023/11/22 03:00:08;;;;;;;6.75;6.15;;;4.00;99.90;;;;;;4974395;28;20699;-84
2023/11/22 03:02:37;;;;;;;8.18;6.90;;;4.00;99.90;;;;;;4995752;28;20228;-84
2023/11/22 03:05:04;;;;;;;8.70;6.70;;;4.00;99.90;;;;;;5013514;28;20221;-84
2023/11/22 03:07:31;;;;;;;9.38;6.10;;;4.00;99.90;;;;;;5013776;28;20230;-78
2023/11/22 03:10:00;;;;;;;8.15;7.22;;;4.00;99.90;;;;;;4996524;28;20314;-78
2023/11/22 03:12:33;;;;;;;6.85;6.15;;;4.00;99.90;;;;;;4994102;28;20226;-78
2023/11/22 03:15:02;;;;;;;7.75;6.75;;;4.10;99.90;;;;;;4993695;28;20254;-78
2023/11/22 03:17:32;;;;;;;8.98;7.03;;;4.10;99.90;;;;;;4994158;28;20234;-78
2023/11/22 03:20:00;;;;;;;7.32;5.78;;;4.00;99.90;;;;;;4993836;28;20699;-78
2023/11/22 03:22:29;;;;;;;7.28;6.13;;;4.00;99.90;;;;;;4993797;28;20258;-78
2023/11/22 03:24:58;;;;;;;7.05;6.20;;;4.00;99.90;;;;;;4993559;28;20231;-78
2023/11/22 03:27:26;;;;;;;9.20;6.22;;;3.90;99.90;;;;;;4994092;28;20226;-78
2023/11/22 03:29:53;;;;;;;8.75;7.47;;;3.90;99.90;;;;;;4986927;28;20222;-78
2023/11/22 03:32:21;;;;;;;8.50;6.85;;;3.80;99.90;;;;;;4993596;28;20227;-78
2023/11/22 03:34:48;;;;;;;9.23;7.30;;;3.70;99.90;;;;;;4990115;28;20223;-84
2023/11/22 03:37:14;;;;;;;8.70;6.65;;;3.70;99.90;;;;;;4992788;28;20222;-78
2023/11/22 03:39:48;;;;;;;7.73;6.70;;;3.70;99.90;;;;;;4994094;28;20634;-78
2023/11/22 03:42:15;;;;;;;10.50;8.10;;;3.70;99.90;;;;;;4993475;28;20474;-84
2023/11/22 03:44:41;;;;;;;8.02;7.30;;;3.60;99.90;;;;;;4994221;28;20243;-84
2023/11/22 03:47:08;;;;;;;7.30;6.65;;;3.60;99.90;;;;;;4992735;28;20607;-83
2023/11/22 03:49:37;;;;;;;8.15;6.20;;;3.60;99.90;;;;;;4993825;28;20231;-78
2023/11/22 03:52:04;;;;;;;8.80;7.13;;;3.60;99.90;;;;;;4996331;28;20227;-84
2023/11/22 03:54:32;;;;;;;7.88;7.05;;;3.70;99.90;;;;;;4997258;28;20284;-78
2023/11/22 03:56:59;;;;;;;9.73;6.40;;;3.70;99.90;;;;;;4997066;28;20219;-83
2023/11/22 03:59:26;;;;;;;7.50;6.63;;;3.70;99.90;;;;;;4997376;28;20254;-84
2023/11/22 04:01:53;;;;;;;11.63;7.32;;;3.60;99.90;;;;;;4997322;28;20309;-78
2023/11/22 04:04:21;;;;;;;7.07;6.38;;;3.60;99.90;;;;;;4996856;28;20305;-83
2023/11/22 04:06:50;;;;;;;7.30;6.57;;;3.60;99.90;;;;;;4997553;28;20249;-78
2023/11/22 04:09:17;;;;;;;9.50;7.63;;;3.60;99.90;;;;;;4996166;28;20226;-84
2023/11/22 04:11:45;;;;;;;10.00;7.95;;;3.60;99.90;;;;;;4997259;28;20226;-84
2023/11/22 04:14:12;;;;;;;7.35;6.60;;;3.60;99.90;;;;;;4996731;28;20232;-83
2023/11/22 04:16:43;;;;;;;9.40;6.80;;;3.60;99.90;;;;;;4996930;28;20533;-84
2023/11/22 04:19:10;;;;;;;7.13;6.43;;;3.60;99.90;;;;;;4996804;28;20238;-84
2023/11/22 04:21:37;;;;;;;8.55;6.65;;;3.50;99.90;;;;;;4996817;28;20292;-78
2023/11/22 04:24:06;;;;;;;9.88;7.43;;;3.50;99.90;;;;;;4996513;28;20225;-78
2023/11/22 04:26:33;;;;;;;8.15;6.88;;;3.50;99.90;;;;;;4996797;28;20230;-78
2023/11/22 04:29:00;;;;;;;9.95;7.78;;;3.40;99.90;;;;;;4996928;28;20309;-78
2023/11/22 04:31:27;;;;;;;7.07;6.47;;;3.40;99.90;;;;;;4996588;28;20238;-83
2023/11/22 04:33:54;;;;;;;8.27;6.70;;;3.40;99.90;;;;;;4996650;28;20329;-84
2023/11/22 04:36:23;;;;;;;11.32;6.55;;;3.40;99.90;;;;;;4996297;28;20227;-84
2023/11/22 04:38:50;;;;;;;6.45;5.82;;;3.40;99.90;;;;;;4996850;28;20234;-78
2023/11/22 04:41:19;;;;;;;9.52;8.02;;;3.40;99.90;;;;;;4995823;28;20234;-84
2023/11/22 04:43:46;;;;;;;8.43;7.47;;;3.50;99.90;;;;;;4995818;28;20309;-84
2023/11/22 04:46:13;;;;;;;8.50;7.57;;;3.40;99.90;;;;;;4990332;28;20314;-84
2023/11/22 04:48:42;;;;;;;9.75;7.10;;;3.40;99.90;;;;;;4975833;28;20661;-84
2023/11/22 04:51:09;;;;;;;8.45;6.80;;;3.40;99.90;;;;;;4976859;28;20561;-85
2023/11/22 04:53:36;;;;;;;8.48;7.40;;;3.30;99.90;;;;;;4975948;28;20238;-84
2023/11/22 04:56:05;;;;;;;9.55;7.90;;;3.30;99.90;;;;;;4976747;28;20297;-84
2023/11/22 04:58:33;;;;;;;8.80;7.35;;;3.30;99.90;;;;;;4976455;28;20219;-78
2023/11/22 05:01:01;;;;;;;7.22;6.05;;;3.30;99.90;;;;;;4976945;28;20255;-84
2023/11/22 05:03:28;;;;;;;8.40;7.18;;;3.30;99.90;;;;;;4975236;28;20282;-84
2023/11/22 05:05:55;;;;;;;8.20;7.40;;;3.20;99.90;;;;;;4977066;28;20251;-84
2023/11/22 05:08:22;;;;;;;8.90;7.03;;;3.20;99.90;;;;;;4968548;28;20228;-84
2023/11/22 05:10:49;;;;;;;7.20;6.50;;;3.20;99.90;;;;;;4975816;28;20707;-84
2023/11/22 05:13:15;;;;;;;8.13;7.22;;;3.20;99.90;;;;;;4976191;28;20582;-84
2023/11/22 05:15:44;;;;;;;8.60;6.95;;;3.20;99.90;;;;;;4976894;28;20263;-84
2023/11/22 05:18:11;;;;;;;9.60;8.13;;;3.20;99.90;;;;;;4976023;28;20632;-79
2023/11/22 05:20:37;;;;;;;8.60;6.45;;;3.20;99.90;;;;;;4976755;28;20310;-84
2023/11/22 05:23:04;;;;;;;8.07;6.60;;;3.20;99.90;;;;;;4976701;28;20302;-78
2023/11/22 05:25:31;;;;;;;8.32;6.90;;;3.20;99.90;;;;;;4975981;28;20563;-78
2023/11/22 05:27:58;;;;;;;9.05;6.55;;;3.20;99.90;;;;;;4976340;28;20306;-78
2023/11/22 05:30:26;;;;;;;8.38;7.55;;;3.20;99.90;;;;;;4976215;28;20704;-84
2023/11/22 05:32:54;;;;;;;11.50;7.68;;;3.20;99.90;;;;;;4977763;28;20227;-84
2023/11/22 05:35:21;;;;;;;8.38;7.35;;;3.20;99.90;;;;;;4977425;28;20238;-84
2023/11/22 05:37:48;;;;;;;9.80;6.88;;;3.10;99.90;;;;;;4978361;28;20231;-84
2023/11/22 05:40:27;;;;;;;8.38;7.55;;;3.10;99.90;;;;;;4981854;28;20234;-84
2023/11/22 05:42:54;;;;;;;8.05;7.22;;;3.20;99.90;;;;;;4981048;28;20227;-84
2023/11/22 05:45:21;;;;;;;9.85;7.90;;;3.20;99.90;;;;;;4981910;28;20279;-84
2023/11/22 05:47:48;;;;;;;7.90;7.10;;;3.20;99.90;;;;;;4994666;28;20251;-84
2023/11/22 05:50:16;;;;;;;6.95;6.25;;;3.10;99.90;;;;;;4993659;28;20230;-83
2023/11/22 05:53:05;;;;;;;9.48;7.10;;;3.20;99.90;;;;;;4996242;28;20231;-83
2023/11/22 05:55:32;;;;;;;10.55;7.45;;;3.20;99.90;;;;;;4995161;28;20231;-83
2023/11/22 05:58:01;;;;;;;12.38;9.02;;;3.20;99.90;;;;;;4992732;28;20569;-84
2023/11/22 06:00:28;;;;;;;9.55;7.30;;;3.20;99.90;;;;;;4977501;28;20231;-83
2023/11/22 06:02:55;;;;;;;9.38;7.32;;;3.20;99.90;;;;;;4976963;28;20252;-84
2023/11/22 06:05:35;;;;;;;13.25;7.95;;;3.20;99.90;;;;;;4968436;28;20223;-83
2023/11/22 06:08:02;;;;;;;7.18;5.82;;;3.20;99.90;;;;;;4976263;28;20231;-84
2023/11/22 06:10:29;;;;;;;7.45;6.70;;;3.30;99.90;;;;;;4975570;28;20254;-84
2023/11/22 06:12:56;;;;;;;8.50;7.32;;;3.20;99.90;;;;;;4975832;28;20314;-83
2023/11/22 06:15:23;;;;;;;9.55;7.45;;;3.20;99.90;;;;;;4975498;28;20579;-83
2023/11/22 06:17:50;;;;;;;12.60;6.95;;;3.20;99.90;;;;;;4975601;28;20231;-82
2023/11/22 06:20:32;;;;;;;11.10;7.57;;;3.20;99.90;;;;;;4975299;28;20233;-82
2023/11/22 06:23:39;;;;;;;9.75;7.95;;;3.20;99.90;;;;;;4975425;28;20237;-83
2023/11/22 06:26:50;;;;;;;;;;;;;;;;;;;;;
2023/11/22 06:29:18;;;;;;;9.55;8.35;;;3.10;99.90;;;;;;4974838;28;20233;-83
2023/11/22 06:31:56;;;;;;;10.48;7.70;;;3.10;99.90;;;;;;4975421;28;20322;-83
2023/11/22 06:34:22;;;;;;;9.70;7.10;;;3.10;99.90;;;;;;4967529;28;20562;-83
2023/11/22 06:42:45;;;;;;;8.20;7.05;;;3.10;99.90;;;;;;4935072;28;20304;-84
2023/11/22 06:48:20;;;;;;;9.70;8.23;;;3.10;99.90;;;;;;4976176;28;20222;-82
2023/11/22 06:50:59;;;;;;;9.55;7.68;;;3.10;99.90;;;;;;4974889;28;20307;-84
2023/11/22 06:53:51;;;;;;;8.60;7.03;;;3.00;99.90;;;;;;4974875;28;20227;-84
2023/11/22 06:59:07;;;;;;;11.82;8.07;;;2.90;99.90;;;;;;4974264;28;20239;-79
2023/11/22 07:01:34;;;;;;;11.75;9.00;;;3.00;99.90;;;;;;4974820;28;20310;-84
2023/11/22 07:04:03;;;;;;;8.90;8.00;;;2.90;99.90;;;;;;4974359;28;20247;-84
2023/11/22 07:06:30;;;;;;;8.88;7.60;;;2.90;99.90;;;;;;4974880;28;20219;-84
2023/11/22 07:08:59;;;;;;;10.32;8.00;;;3.00;99.90;;;;;;4974587;28;20297;-84
2023/11/22 07:11:30;;;;;;;12.90;8.32;;;3.00;99.90;;;;;;4974943;28;20318;-84
2023/11/22 07:14:01;;;;;;;11.05;8.32;;;2.90;99.90;;;;;;4973740;28;20227;-84
2023/11/22 07:16:28;;;;;;;10.80;8.60;;;2.90;99.90;;;;;;4974340;28;20233;-84
2023/11/22 07:21:29;;;;;;;10.27;7.57;;;2.90;99.90;;;;;;4974042;28;20219;-84
2023/11/22 07:23:56;;;;;;;9.90;7.30;;;2.80;99.90;;;;;;4974684;28;20236;-84
2023/11/22 07:26:23;;;;;;;10.82;7.75;;;2.80;99.90;;;;;;4976634;28;20311;-83
2023/11/22 07:28:51;;;;;;;10.30;8.75;;;2.80;99.90;;;;;;4979080;28;20549;-78
2023/11/22 07:31:19;;;;;;;10.15;8.60;;;2.90;99.90;;;;;;4978428;28;20259;-78
2023/11/22 07:33:46;;;;;;;8.63;7.78;;;2.90;99.90;;;;;;4979090;28;20235;-83
2023/11/22 07:36:14;;;;;;;9.57;8.15;;;2.90;99.90;;;;;;4978748;28;20223;-78
2023/11/22 07:38:42;;;;;;;10.75;8.27;;;3.00;99.90;;;;;;4978591;28;20226;-78
2023/11/22 07:41:09;;;;;;;8.85;7.80;;;3.00;99.90;;;;;;4978587;28;20310;-78
2023/11/22 07:43:36;;;;;;;9.90;8.90;;;3.00;99.90;;;;;;4978515;28;20223;-77
2023/11/22 07:46:12;;;;;;;9.98;8.30;;;3.00;99.90;;;;;;4978219;28;20223;-78
2023/11/22 07:48:40;;;;;;;9.52;7.63;;;3.00;99.90;;;;;;4978370;28;20257;-77
2023/11/22 07:51:08;;;;;;;11.15;8.45;;;3.10;99.90;;;;;;4978504;28;20234;-83
2023/11/22 07:53:35;;;;;;;10.35;9.27;;;3.00;99.90;;;;;;4977887;28;20266;-82
2023/11/22 07:56:04;;;;;;;9.85;8.95;;;3.00;99.90;;;;;;4978194;28;20214;-77
2023/11/22 07:58:31;;;;;;;10.50;9.20;;;3.10;99.90;;;;;;4977977;28;20282;-78
2023/11/22 08:00:59;;;;;;;12.52;9.77;;;3.10;99.90;;;;;;4980490;28;20250;-78
2023/11/22 08:03:28;;;;;;;11.38;8.73;;;3.10;99.90;;;;;;4979391;28;20231;-78
2023/11/22 08:05:55;;;;;;;12.60;9.65;;;3.10;99.90;;;;;;4980526;28;20227;-77
2023/11/22 08:08:22;;;;;;;12.77;8.70;;;3.10;99.90;;;;;;4980162;28;20227;-77
2023/11/22 08:10:53;;;;;;;13.27;9.07;;;3.20;99.90;;;;;;4978052;28;20239;-77
2023/11/22 08:13:22;;;;;;;12.95;9.05;;;3.20;99.90;;;;;;4978317;28;20258;-77
2023/11/22 08:15:49;;;;;;;13.35;10.25;;;3.30;99.90;;;;;;4978269;28;20239;-79
2023/11/22 08:18:17;;;;;;;49.38;31.38;;;3.30;99.90;;;;;;4977383;28;20220;-79
2023/11/22 08:20:45;;;;;;;25.35;15.25;;;3.30;99.90;;;;;;4977813;28;20231;-80
2023/11/22 08:23:13;;;;;;;74.32;44.83;;;3.40;99.90;;;;;;4977462;28;20307;-77
2023/11/22 08:25:40;;;;;;;32.03;20.75;;;3.40;99.90;;;;;;4976929;28;20222;-79
2023/11/22 08:28:08;;;;;;;14.35;10.40;;;3.50;99.90;;;;;;4984924;28;20227;-78
2023/11/22 08:30:35;;;;;;;11.13;9.35;;;3.50;99.90;;;;;;4989974;28;20228;-83
2023/11/22 08:33:02;;;;;;;11.40;8.48;;;3.50;99.90;;;;;;4995401;28;20227;-83
2023/11/22 08:35:29;;;;;;;11.30;9.15;;;3.50;99.90;;;;;;4994733;28;20235;-83
2023/11/22 08:37:58;;;;;;;10.00;8.25;;;3.50;99.90;;;;;;4992691;28;20259;-83
2023/11/22 08:40:25;;;;;;;13.45;11.15;;;3.50;99.90;;;;;;4989191;28;20233;-83
2023/11/22 08:42:58;;;;;;;13.30;9.50;;;3.50;99.90;;;;;;4977441;28;20237;-83
2023/11/22 08:45:25;;;;;;;10.27;8.50;;;3.50;99.90;;;;;;4976818;28;20290;-83
2023/11/22 08:47:52;;;;;;;12.75;9.35;;;3.50;99.90;;;;;;4977498;28;20222;-83
2023/11/22 08:50:19;;;;;;;9.82;8.52;;;3.50;99.90;;;;;;4977253;28;20318;-84
2023/11/22 08:52:46;;;;;;;10.80;8.13;;;3.60;99.90;;;;;;4976694;28;20310;-83
2023/11/22 08:55:20;;;;;;;11.88;8.57;;;3.60;99.90;;;;;;4977204;28;20332;-84
2023/11/22 08:57:50;;;;;;;11.95;9.15;;;3.60;99.90;;;;;;4976980;28;20296;-83
2023/11/22 09:00:22;;;;;;;13.10;9.13;;;3.70;99.90;;;;;;4976750;28;20242;-83
2023/11/22 09:02:49;;;;;;;11.02;8.10;;;3.70;99.90;;;;;;4976644;28;20251;-85
2023/11/22 09:05:18;;;;;;;12.95;8.05;;;3.70;99.90;;;;;;4976887;28;20251;-84
2023/11/22 09:07:46;;;;;;;8.93;8.00;;;3.70;99.90;;;;;;4976770;28;20223;-84
2023/11/22 09:10:15;;;;;;;10.10;7.93;;;3.80;99.90;;;;;;4976796;28;20573;-84
2023/11/22 09:12:43;;;;;;;11.07;8.45;;;3.80;99.90;;;;;;4976059;28;20265;-84
2023/11/22 09:15:12;;;;;;;10.65;8.00;;;3.80;99.90;;;;;;4977190;28;20250;-84
2023/11/22 09:17:43;;;;;;;12.63;8.65;;;3.80;99.90;;;;;;4976680;28;20270;-84
2023/11/22 09:20:12;;;;;;;11.82;8.05;;;3.90;99.90;;;;;;4967934;28;20235;-84
2023/11/22 09:22:45;;;;;;;8.15;7.30;;;3.90;99.90;;;;;;4976820;28;20258;-83
2023/11/22 09:25:13;;;;;;;11.15;8.60;;;4.00;99.90;;;;;;4977363;28;20219;-83
2023/11/22 09:27:41;;;;;;;11.93;9.30;;;3.90;99.90;;;;;;4977136;28;20314;-83
2023/11/22 09:30:17;;;;;;;9.82;8.27;;;3.90;99.90;;;;;;4977207;28;20231;-83
2023/11/22 09:32:45;;;;;;;9.55;7.60;;;3.90;99.90;;;;;;4976656;28;20231;-82
2023/11/22 09:35:13;;;;;;;12.13;8.68;;;3.90;99.90;;;;;;4977590;28;20286;-83
2023/11/22 09:37:44;;;;;;;9.25;8.27;;;4.00;99.90;;;;;;4976721;28;20231;-84
2023/11/22 09:40:17;;;;;;;11.10;9.38;;;4.00;99.90;;;;;;4977504;28;20251;-82
2023/11/22 09:42:50;;;;;;;9.45;8.38;;;4.00;99.90;;;;;;4976563;28;20242;-77
2023/11/22 09:45:18;;;;;;;10.48;8.88;;;4.10;99.90;;;;;;4976603;28;20238;-78
2023/11/22 09:47:47;;;;;;;8.38;7.47;;;4.20;99.90;;;;;;4975978;28;20224;-78
2023/11/22 09:50:19;;;;;;;11.52;7.72;;;4.20;99.90;;;;;;4967367;28;20262;-78
2023/11/22 09:52:50;;;;;;;8.40;7.60;;;4.20;99.90;;;;;;4976693;28;20257;-84
2023/11/22 09:55:18;;;;;;;12.40;7.18;;;4.10;99.90;;;;;;4979049;28;20707;-78
2023/11/22 09:57:47;;;;;;;8.48;7.38;;;4.00;99.90;;;;;;4988832;28;20234;-83
2023/11/22 10:00:16;;;;;;;8.75;7.85;;;4.10;99.90;;;;;;4992743;28;20310;-82
2023/11/22 10:02:43;;;;;;;15.10;9.35;;;4.10;99.90;;;;;;4975478;28;20243;-78
2023/11/22 10:05:15;;;;;;;9.48;8.48;;;4.20;99.90;;;;;;4976198;28;20227;-78
2023/11/22 10:07:42;;;;;;;11.63;8.55;;;4.20;99.90;;;;;;4975025;28;20231;-78
2023/11/22 10:10:11;;;;;;;9.52;8.25;;;4.20;99.90;;;;;;4975721;28;20310;-78
2023/11/22 10:12:40;;;;;;;9.02;7.00;;;4.20;99.90;;;;;;4974648;28;20227;-77
2023/11/22 10:15:16;;;;;;;9.40;6.78;;;4.20;99.90;;;;;;4975778;28;20247;-77
2023/11/22 10:17:55;;;;;;;9.43;7.10;;;4.20;99.90;;;;;;4975218;28;20235;-82
2023/11/22 10:20:23;;;;;;;8.32;7.50;;;4.30;99.90;;;;;;4975011;28;20239;-82
2023/11/22 10:22:50;;;;;;;8.90;7.68;;;4.30;99.90;;;;;;4975031;28;20274;-77
2023/11/22 10:25:18;;;;;;;9.23;7.32;;;4.40;99.90;;;;;;4975716;28;20227;-82
2023/11/22 10:27:47;;;;;;;10.80;7.88;;;4.50;99.90;;;;;;4975336;28;20306;-76
2023/11/22 10:30:16;;;;;;;9.70;7.13;;;4.50;99.90;;;;;;4976307;28;20564;-83
2023/11/22 10:32:43;;;;;;;10.80;7.00;;;4.60;99.90;;;;;;4981810;28;20677;-82
2023/11/22 10:35:10;;;;;;;8.70;7.80;;;4.60;99.90;;;;;;4978042;28;20234;-83
2023/11/22 10:37:37;;;;;;;7.63;6.90;;;4.60;99.90;;;;;;4975254;28;20286;-82
2023/11/22 10:40:06;;;;;;;9.50;7.30;;;4.70;99.90;;;;;;4975439;28;20231;-83
2023/11/22 10:45:31;;;;;;;8.18;6.75;;;4.70;99.90;;;;;;4973867;28;20234;-83
2023/11/22 10:48:18;;;;;;;8.77;7.82;;;4.70;99.90;;;;;;4975297;28;20608;-83
2023/11/22 10:50:46;;;;;;;7.90;6.90;;;4.80;99.90;;;;;;4974955;28;20558;-83
2023/11/22 10:53:18;;;;;;;7.53;6.82;;;4.80;99.90;;;;;;4974694;28;20235;-83
2023/11/22 10:59:05;;;;;;;7.43;6.72;;;4.80;99.90;;;;;;4964378;28;20234;-83
2023/11/22 11:01:37;;;;;;;7.80;5.90;;;4.90;99.90;;;;;;4972996;28;20255;-83
2023/11/22 11:07:10;;;;;;;10.65;6.90;;;5.00;99.90;;;;;;4953220;28;20321;-83
2023/11/22 11:09:39;;;;;;;8.30;7.28;;;5.00;99.90;;;;;;4975012;28;20652;-83
2023/11/22 11:12:07;;;;;;;8.35;7.45;;;5.00;99.90;;;;;;4974126;28;20601;-83
2023/11/22 11:14:35;;;;;;;8.82;7.05;;;5.10;99.90;;;;;;4974811;28;20228;-83
2023/11/22 11:17:03;;;;;;;8.63;6.78;;;5.10;99.90;;;;;;4974361;28;20318;-83
2023/11/22 11:19:32;;;;;;;8.27;6.68;;;5.20;99.90;;;;;;4974778;28;20227;-83
2023/11/22 11:21:58;;;;;;;8.82;7.00;;;5.10;99.90;;;;;;4974202;28;20235;-82
2023/11/22 11:24:25;;;;;;;7.45;6.43;;;5.20;99.90;;;;;;4974880;28;20306;-77
2023/11/22 11:26:54;;;;;;;9.50;7.65;;;5.20;99.90;;;;;;4973064;28;20720;-77
2023/11/22 11:29:31;;;;;;;8.32;7.50;;;5.30;99.90;;;;;;4974377;28;20231;-77
2023/11/22 11:31:58;;;;;;;7.53;6.63;;;5.30;99.90;;;;;;4973516;28;20231;-83
2023/11/22 11:34:26;;;;;;;8.25;7.03;;;5.30;99.90;;;;;;4974840;28;20233;-83
2023/11/22 11:36:55;;;;;;;10.23;7.60;;;5.40;99.90;;;;;;4974121;28;20594;-82
2023/11/22 11:39:30;;;;;;;7.93;7.13;;;5.40;99.90;;;;;;4966824;28;20310;-83
2023/11/22 11:42:09;;;;;;;8.55;6.97;;;5.40;99.90;;;;;;4974047;28;20309;-83
2023/11/22 11:44:36;;;;;;;9.38;8.45;;;5.50;99.90;;;;;;4974705;28;20227;-83
2023/11/22 11:47:10;;;;;;;7.43;6.72;;;5.50;99.90;;;;;;4973973;28;20236;-83
2023/11/22 11:49:40;;;;;;;11.85;8.25;;;5.60;99.90;;;;;;4985152;28;20244;-83
2023/11/22 11:52:07;;;;;;;9.50;6.78;;;5.60;99.90;;;;;;4993011;28;20234;-83
2023/11/22 11:54:35;;;;;;;9.18;6.60;;;5.60;99.90;;;;;;4993835;28;20251;-83
2023/11/22 11:57:02;;;;;;;9.23;7.63;;;5.60;99.90;;;;;;4993434;28;20237;-83
2023/11/22 11:59:29;;;;;;;8.82;7.78;;;5.70;99.90;;;;;;4994330;28;20242;-83
2023/11/22 12:01:57;;;;;;;8.25;7.45;;;5.70;99.90;;;;;;4993200;28;20306;-83
2023/11/22 12:04:24;;;;;;;8.77;7.82;;;5.70;99.90;;;;;;4993488;28;20227;-83
2023/11/22 12:06:52;;;;;;;9.23;7.28;;;5.70;99.90;;;;;;4993632;28;20755;-83
2023/11/22 12:09:25;;;;;;;8.90;8.00;;;5.80;99.90;;;;;;4985338;28;20573;-83
2023/11/22 12:11:53;;;;;;;9.20;7.93;;;5.80;99.90;;;;;;4995177;28;20242;-83
2023/11/22 12:14:20;;;;;;;8.63;7.80;;;5.80;99.90;;;;;;4988658;28;20293;-83
2023/11/22 12:16:48;;;;;;;8.98;7.03;;;5.80;99.20;;;;;;4997552;28;20252;-83
2023/11/22 12:19:25;;;;;;;7.68;6.22;;;5.90;99.10;;;;;;4997264;28;20254;-83
2023/11/22 12:21:53;;;;;;;6.32;5.72;;;5.90;99.00;;;;;;4996507;28;20229;-83
2023/11/22 12:24:21;;;;;;;8.13;6.82;;;6.00;99.00;;;;;;4996833;28;20227;-83
2023/11/22 12:26:49;;;;;;;8.90;5.85;;;6.00;98.80;;;;;;4996951;28;20226;-83
2023/11/22 12:29:18;;;;;;;8.55;6.88;;;6.00;97.40;;;;;;4996732;28;20245;-83
2023/11/22 12:31:50;;;;;;;8.85;6.57;;;6.00;97.60;;;;;;4997183;28;20222;-83
2023/11/22 12:34:18;;;;;;;7.93;6.43;;;6.00;97.80;;;;;;4996142;28;20308;-83
2023/11/22 12:36:48;;;;;;;7.80;6.97;;;6.00;97.90;;;;;;4996755;28;20246;-83
2023/11/22 12:39:17;;;;;;;7.30;6.10;;;6.00;98.10;;;;;;4995252;28;20230;-84
2023/11/22 12:41:50;;;;;;;8.20;6.90;;;6.00;97.90;;;;;;4996304;28;20223;-84
2023/11/22 12:44:17;;;;;;;7.53;6.45;;;6.10;97.70;;;;;;4996326;28;20230;-84
2023/11/22 12:46:48;;;;;;;8.10;7.30;;;6.10;97.40;;;;;;4996840;28;20233;-84
2023/11/22 12:49:18;;;;;;;10.52;7.80;;;6.00;97.60;;;;;;4996406;28;20314;-84
2023/11/22 12:51:50;;;;;;;12.02;9.10;;;6.10;97.60;;;;;;4996455;28;20241;-83
2023/11/22 12:54:21;;;;;;;7.97;6.57;;;6.10;98.00;;;;;;4996163;28;20309;-83
2023/11/22 12:56:49;;;;;;;7.53;6.72;;;6.10;98.30;;;;;;4996306;28;20313;-84
2023/11/22 12:59:17;;;;;;;8.60;7.03;;;6.20;98.30;;;;;;4995739;28;20707;-84
2023/11/22 13:01:44;;;;;;;8.50;6.40;;;6.20;98.30;;;;;;4996374;28;20234;-84
2023/11/22 13:04:14;;;;;;;7.65;6.22;;;6.30;98.20;;;;;;4995281;28;20257;-84
2023/11/22 13:06:40;;;;;;;7.25;6.18;;;6.30;98.20;;;;;;4996375;28;20231;-84
2023/11/22 13:09:10;;;;;;;6.68;5.15;;;6.30;98.00;;;;;;4995822;28;20223;-83
2023/11/22 13:11:43;;;;;;;6.30;5.45;;;6.30;97.50;;;;;;4996353;28;20233;-83
2023/11/22 13:14:11;;;;;;;8.60;7.13;;;6.30;97.60;;;;;;4995879;28;20226;-84
2023/11/22 13:16:38;;;;;;;7.05;6.35;;;6.30;97.80;;;;;;4996062;28;20281;-84
2023/11/22 13:19:06;;;;;;;7.45;6.70;;;6.30;97.70;;;;;;4995967;28;20223;-84
2023/11/22 13:21:35;;;;;;;7.35;6.35;;;6.30;97.60;;;;;;4995687;28;20258;-84
2023/11/22 13:24:03;;;;;;;7.50;6.18;;;6.30;97.70;;;;;;4993686;28;20304;-84
2023/11/22 13:26:30;;;;;;;8.88;6.65;;;6.30;97.70;;;;;;4996193;28;20231;-78
2023/11/22 13:28:59;;;;;;;9.23;6.30;;;6.30;97.60;;;;;;4995949;28;20245;-78